createdAt,value
2023-03-31T00:00:14.266Z,10.09
2023-03-31T00:03:01.843Z,10.03
2023-03-31T00:05:29.623Z,10.05
2023-03-31T00:07:58.280Z,10.08
2023-03-31T00:10:26.194Z,10.21
2023-03-31T00:12:55.071Z,10.20
2023-03-31T00:15:23.056Z,10.08
2023-03-31T00:17:50.388Z,10.13
2023-03-31T00:20:18.279Z,10.09
2023-03-31T00:22:46.057Z,10.04
2023-03-31T00:25:14.505Z,9.91
2023-03-31T00:27:42.984Z,9.96
2023-03-31T00:30:14.047Z,10.00
2023-03-31T00:32:41.940Z,10.03
2023-03-31T00:35:09.986Z,10.05
2023-03-31T00:37:37.426Z,9.94
2023-03-31T00:40:06.182Z,9.87
2023-03-31T00:42:33.606Z,10.06
2023-03-31T00:45:25.438Z,10.06
2023-03-31T00:47:56.287Z,9.86
2023-03-31T00:50:27.292Z,9.85
2023-03-31T00:52:57.701Z,9.80
2023-03-31T00:55:30.672Z,9.97
2023-03-31T00:57:58.833Z,9.89
2023-03-31T01:00:28.555Z,9.99
2023-03-31T01:03:09.356Z,9.96
2023-03-31T01:05:43.185Z,9.78
2023-03-31T01:08:11.698Z,9.63
2023-03-31T01:10:45.167Z,9.68
2023-03-31T01:13:14.886Z,9.80
2023-03-31T01:15:44.692Z,9.52
2023-03-31T01:18:14.106Z,9.54
2023-03-31T01:21:04.420Z,9.37
2023-03-31T01:24:08.960Z,9.36
2023-03-31T01:26:56.433Z,9.39
2023-03-31T01:29:56.348Z,9.34
2023-03-31T01:32:51.334Z,9.14
2023-03-31T01:35:48.236Z,9.28
2023-03-31T01:38:48.162Z,9.21
2023-03-31T01:41:29.516Z,9.26
2023-03-31T01:44:05.446Z,9.26
2023-03-31T01:46:37.076Z,9.27
2023-03-31T01:49:12.047Z,9.20
2023-03-31T01:51:47.339Z,9.08
2023-03-31T01:54:21.290Z,9.17
2023-03-31T01:56:54.396Z,9.14
2023-03-31T01:59:27.820Z,9.03
2023-03-31T02:01:59.165Z,8.82
2023-03-31T02:04:31.662Z,8.71
2023-03-31T02:07:03.775Z,8.78
2023-03-31T02:12:08.653Z,8.69
2023-03-31T02:14:39.713Z,8.92
2023-03-31T02:17:10.394Z,8.86
2023-03-31T02:19:44.077Z,8.83
2023-03-31T02:22:13.512Z,8.75
2023-03-31T02:24:42.607Z,8.86
2023-03-31T02:27:15.942Z,8.90
2023-03-31T02:29:43.812Z,8.92
2023-03-31T02:32:16.178Z,8.93
2023-03-31T02:34:43.947Z,8.91
2023-03-31T02:37:12.280Z,8.79
2023-03-31T02:39:41.833Z,8.89
2023-03-31T02:42:11.602Z,8.88
2023-03-31T02:44:40.135Z,8.69
2023-03-31T02:47:09.448Z,8.70
2023-03-31T02:49:40.312Z,8.73
2023-03-31T02:52:42.657Z,8.47
2023-03-31T02:55:44.986Z,8.25
2023-03-31T02:58:54.624Z,8.04
2023-03-31T03:01:31.539Z,7.88
2023-03-31T03:04:10.994Z,7.68
2023-03-31T03:06:45.030Z,7.69
2023-03-31T03:09:26.608Z,7.69
2023-03-31T03:12:05.739Z,7.91
2023-03-31T03:14:40.825Z,7.99
2023-03-31T03:17:15.294Z,7.97
2023-03-31T03:19:43.067Z,8.05
2023-03-31T03:22:10.796Z,8.13
2023-03-31T03:24:38.323Z,8.17
2023-03-31T03:27:06.163Z,7.96
2023-03-31T03:29:33.650Z,8.02
2023-03-31T03:32:01.419Z,7.92
2023-03-31T03:34:30.216Z,7.91
2023-03-31T03:36:57.955Z,8.02
2023-03-31T03:39:25.393Z,8.09
2023-03-31T03:41:54.110Z,8.07
2023-03-31T03:44:21.498Z,8.03
2023-03-31T03:46:49.928Z,7.86
2023-03-31T03:49:17.570Z,7.88
2023-03-31T03:51:47.002Z,7.87
2023-03-31T03:54:14.444Z,7.77
2023-03-31T03:56:42.247Z,7.81
2023-03-31T03:59:11.238Z,7.92
2023-03-31T04:01:39.223Z,7.96
2023-03-31T04:04:06.963Z,7.79
2023-03-31T04:06:35.299Z,7.67
2023-03-31T04:09:04.266Z,7.76
2023-03-31T04:11:32.112Z,7.86
2023-03-31T04:13:59.509Z,7.80
2023-03-31T04:16:27.643Z,7.62
2023-03-31T04:18:55.336Z,7.41
2023-03-31T04:21:23.806Z,7.21
2023-03-31T04:23:54.078Z,6.81
2023-03-31T04:26:23.332Z,6.79
2023-03-31T04:28:50.870Z,6.84
2023-03-31T04:31:18.705Z,6.88
2023-03-31T04:33:46.309Z,6.75
2023-03-31T04:36:14.158Z,6.63
2023-03-31T04:38:41.542Z,6.61
2023-03-31T04:41:09.524Z,6.62
2023-03-31T04:43:38.438Z,6.57
2023-03-31T04:46:07.141Z,6.81
2023-03-31T04:48:35.033Z,7.01
2023-03-31T04:51:03.599Z,7.20
2023-03-31T04:53:31.428Z,7.30
2023-03-31T04:55:59.155Z,7.25
2023-03-31T04:58:26.662Z,7.20
2023-03-31T05:00:55.933Z,7.07
2023-03-31T05:03:23.474Z,7.26
2023-03-31T05:05:51.305Z,7.42
2023-03-31T05:08:18.770Z,7.38
2023-03-31T05:10:46.520Z,7.49
2023-03-31T05:13:13.963Z,7.82
2023-03-31T05:15:41.888Z,8.12
2023-03-31T05:18:11.172Z,8.22
2023-03-31T05:20:38.982Z,8.54
2023-03-31T05:23:06.524Z,8.57
2023-03-31T05:25:34.478Z,8.75
2023-03-31T05:28:02.411Z,8.79
2023-03-31T05:30:30.229Z,8.70
2023-03-31T05:32:57.904Z,8.71
2023-03-31T05:35:27.901Z,9.02
2023-03-31T05:37:55.413Z,9.40
2023-03-31T05:40:23.220Z,9.50
2023-03-31T05:42:51.043Z,9.88
2023-03-31T05:45:18.989Z,10.04
2023-03-31T05:47:46.480Z,10.19
2023-03-31T05:50:14.995Z,10.43
2023-03-31T05:52:44.132Z,10.21
2023-03-31T05:55:11.914Z,10.17
2023-03-31T05:57:39.365Z,10.65
2023-03-31T06:00:08.750Z,10.58
2023-03-31T06:02:36.271Z,10.82
2023-03-31T06:05:04.564Z,11.09
2023-03-31T06:07:32.117Z,11.10
2023-03-31T06:10:01.561Z,11.27
2023-03-31T06:12:29.150Z,11.49
2023-03-31T06:14:56.886Z,11.41
2023-03-31T06:17:24.255Z,11.89
2023-03-31T06:19:52.642Z,11.88
2023-03-31T06:22:20.278Z,12.07
2023-03-31T06:24:48.055Z,12.20
2023-03-31T06:27:17.095Z,11.87
2023-03-31T06:29:44.790Z,11.90
2023-03-31T06:32:12.228Z,11.83
2023-03-31T06:34:40.107Z,12.39
2023-03-31T06:37:07.495Z,12.28
2023-03-31T06:39:35.334Z,12.36
2023-03-31T06:42:02.855Z,12.65
2023-03-31T06:44:32.471Z,12.58
2023-03-31T06:46:59.853Z,12.50
2023-03-31T06:49:27.622Z,12.54
2023-03-31T06:51:54.998Z,12.77
2023-03-31T06:54:22.880Z,12.72
2023-03-31T06:56:50.355Z,12.58
2023-03-31T06:59:18.172Z,12.62
2023-03-31T07:01:47.101Z,12.58
2023-03-31T07:04:15.013Z,12.68
2023-03-31T07:06:42.491Z,12.46
2023-03-31T07:09:10.207Z,12.35
2023-03-31T07:11:37.575Z,12.56
2023-03-31T07:14:05.333Z,12.61
2023-03-31T07:16:32.877Z,12.54
2023-03-31T07:19:02.140Z,12.36
2023-03-31T07:21:29.584Z,12.14
2023-03-31T07:23:58.282Z,12.19
2023-03-31T07:26:26.151Z,12.27
2023-03-31T07:28:54.025Z,12.25
2023-03-31T07:31:21.447Z,12.43
2023-03-31T07:33:49.634Z,12.60
2023-03-31T07:36:18.903Z,12.72
2023-03-31T07:38:47.944Z,12.73
2023-03-31T07:41:18.869Z,12.55
2023-03-31T07:43:47.555Z,12.39
2023-03-31T07:46:16.802Z,12.37
2023-03-31T07:48:45.746Z,12.50
2023-03-31T07:51:13.533Z,12.83
2023-03-31T07:53:42.931Z,13.20
2023-03-31T07:56:10.543Z,13.38
2023-03-31T07:58:38.537Z,13.40
2023-03-31T08:01:06.208Z,13.40
2023-03-31T08:03:34.490Z,13.39
2023-03-31T08:06:02.026Z,13.57
2023-03-31T08:08:29.742Z,13.61
2023-03-31T08:10:58.711Z,13.77
2023-03-31T08:13:26.537Z,13.84
2023-03-31T08:15:53.985Z,13.94
2023-03-31T08:18:21.916Z,13.81
2023-03-31T08:20:49.590Z,13.52
2023-03-31T08:23:17.449Z,13.45
2023-03-31T08:25:44.825Z,13.58
2023-03-31T08:28:14.093Z,13.69
2023-03-31T08:30:41.800Z,13.54
2023-03-31T08:33:09.765Z,13.58
2023-03-31T08:35:37.289Z,13.81
2023-03-31T08:38:05.159Z,13.76
2023-03-31T08:40:33.692Z,13.95
2023-03-31T08:43:06.346Z,13.88
2023-03-31T08:45:39.830Z,13.79
2023-03-31T08:48:15.182Z,13.79
2023-03-31T08:50:47.633Z,13.78
2023-03-31T08:53:23.424Z,13.81
2023-03-31T08:55:53.530Z,13.82
2023-03-31T08:58:33.534Z,14.01
2023-03-31T09:01:08.216Z,14.06
2023-03-31T09:03:45.610Z,14.23
2023-03-31T09:06:16.782Z,13.98
2023-03-31T09:08:44.728Z,14.17
2023-03-31T09:11:29.428Z,13.96
2023-03-31T09:14:25.235Z,14.15
2023-03-31T09:17:05.845Z,13.85
2023-03-31T09:19:38.633Z,13.91
2023-03-31T09:22:14.350Z,13.99
2023-03-31T09:24:49.384Z,14.08
2023-03-31T09:27:18.231Z,14.11
2023-03-31T09:29:52.140Z,13.94
2023-03-31T09:32:25.206Z,13.78
2023-03-31T09:34:56.879Z,13.90
2023-03-31T09:37:28.003Z,13.80
2023-03-31T09:39:56.491Z,13.93
2023-03-31T09:42:23.974Z,13.83
2023-03-31T09:44:51.793Z,14.05
2023-03-31T09:47:29.133Z,14.47
2023-03-31T09:49:56.955Z,14.59
2023-03-31T09:52:29.805Z,14.43
2023-03-31T09:55:00.467Z,14.52
2023-03-31T09:57:33.808Z,14.44
2023-03-31T10:00:05.072Z,14.37
2023-03-31T10:02:38.440Z,14.18
2023-03-31T10:05:17.919Z,14.20
2023-03-31T10:07:45.675Z,14.37
2023-03-31T10:10:29.097Z,14.48
2023-03-31T10:12:56.792Z,14.73
2023-03-31T10:15:27.673Z,14.61
2023-03-31T10:17:58.877Z,14.43
2023-03-31T10:20:37.072Z,14.38
2023-03-31T10:23:15.045Z,14.31
2023-03-31T10:25:43.131Z,14.22
2023-03-31T10:28:12.709Z,14.15
2023-03-31T10:30:40.426Z,14.32
2023-03-31T10:33:22.742Z,14.61
2023-03-31T10:35:56.474Z,14.45
2023-03-31T10:38:27.558Z,14.45
2023-03-31T10:40:57.062Z,14.59
2023-03-31T10:43:27.631Z,14.76
2023-03-31T10:45:57.518Z,15.02
2023-03-31T10:48:28.527Z,15.23
2023-03-31T10:51:00.725Z,15.53
2023-03-31T10:53:28.268Z,15.84
2023-03-31T10:56:28.477Z,16.24
2023-03-31T10:59:35.391Z,16.80
2023-03-31T11:02:34.307Z,17.17
2023-03-31T11:05:12.121Z,17.08
2023-03-31T11:07:53.690Z,16.81
2023-03-31T11:10:41.341Z,16.91
2023-03-31T11:13:17.404Z,16.74
2023-03-31T11:15:54.654Z,16.77
2023-03-31T11:18:45.664Z,16.46
2023-03-31T11:21:23.946Z,16.67
2023-03-31T11:24:01.997Z,16.92
2023-03-31T11:26:38.771Z,16.85
2023-03-31T11:29:19.802Z,16.52
2023-03-31T11:31:52.444Z,16.39
2023-03-31T11:34:57.064Z,16.23
2023-03-31T11:37:42.778Z,16.11
2023-03-31T11:40:33.316Z,16.29
2023-03-31T11:43:06.666Z,16.50
2023-03-31T11:45:38.893Z,16.20
2023-03-31T11:48:15.945Z,16.22
2023-03-31T11:50:47.091Z,15.97
2023-03-31T11:53:18.958Z,15.61
2023-03-31T11:55:50.508Z,15.61
2023-03-31T11:58:23.320Z,15.48
2023-03-31T12:00:56.429Z,15.40
2023-03-31T12:03:30.160Z,15.14
2023-03-31T12:06:02.962Z,14.77
2023-03-31T12:08:38.958Z,14.76
2023-03-31T12:11:12.780Z,14.72
2023-03-31T12:13:48.317Z,14.58
2023-03-31T12:16:20.337Z,14.39
2023-03-31T12:18:59.918Z,14.22
2023-03-31T12:21:30.049Z,14.15
2023-03-31T12:23:58.910Z,13.94
2023-03-31T12:26:40.203Z,14.24
2023-03-31T12:29:17.652Z,14.13
2023-03-31T12:31:47.071Z,14.09
2023-03-31T12:34:18.460Z,14.38
2023-03-31T12:37:04.767Z,14.42
2023-03-31T12:39:44.456Z,14.43
2023-03-31T12:42:38.707Z,14.58
2023-03-31T12:45:16.846Z,14.61
2023-03-31T12:48:00.011Z,14.42
2023-03-31T12:50:43.927Z,14.40
2023-03-31T12:53:18.868Z,14.42
2023-03-31T12:55:48.941Z,14.18
2023-03-31T12:58:42.681Z,14.37
2023-03-31T13:01:13.396Z,14.36
2023-03-31T13:03:44.912Z,14.18
2023-03-31T13:06:59.265Z,14.29
2023-03-31T13:09:44.513Z,14.42
2023-03-31T13:12:17.899Z,14.21
2023-03-31T13:14:47.632Z,13.88
2023-03-31T13:17:31.776Z,13.79
2023-03-31T13:20:25.732Z,13.59
2023-03-31T13:23:00.717Z,13.44
2023-03-31T13:25:45.381Z,13.54
2023-03-31T13:28:31.721Z,13.70
2023-03-31T13:31:01.490Z,13.96
2023-03-31T13:33:35.219Z,14.14
2023-03-31T13:36:44.596Z,14.15
2023-03-31T13:39:40.752Z,14.11
2023-03-31T13:42:33.257Z,14.07
2023-03-31T13:45:31.241Z,13.98
2023-03-31T13:48:20.716Z,14.16
2023-03-31T13:51:02.225Z,14.45
2023-03-31T13:53:45.802Z,14.15
2023-03-31T13:56:33.562Z,14.27
2023-03-31T13:59:29.422Z,14.20
2023-03-31T14:02:36.813Z,14.13
2023-03-31T14:05:22.836Z,14.08
2023-03-31T14:07:55.723Z,14.13
2023-03-31T14:10:30.386Z,14.00
2023-03-31T14:13:10.043Z,14.15
2023-03-31T14:15:40.677Z,14.10
2023-03-31T14:18:13.844Z,13.95
2023-03-31T14:20:50.430Z,13.84
2023-03-31T14:23:31.014Z,14.18
2023-03-31T14:26:05.216Z,14.34
2023-03-31T14:28:50.444Z,14.40
2023-03-31T14:31:24.620Z,14.37
2023-03-31T14:34:20.805Z,14.45
2023-03-31T14:36:57.087Z,14.52
2023-03-31T14:39:28.187Z,14.36
2023-03-31T14:41:59.556Z,14.50
2023-03-31T14:44:26.926Z,14.66
2023-03-31T14:46:57.221Z,14.48
2023-03-31T14:49:29.176Z,14.50
2023-03-31T14:52:01.411Z,14.58
2023-03-31T14:54:34.240Z,14.85
2023-03-31T14:57:02.134Z,14.40
2023-03-31T14:59:32.706Z,14.40
2023-03-31T15:02:02.426Z,14.51
2023-03-31T15:04:42.625Z,14.32
2023-03-31T15:07:11.665Z,14.42
2023-03-31T15:09:40.150Z,14.04
2023-03-31T15:12:12.049Z,13.55
2023-03-31T15:14:44.940Z,13.33
2023-03-31T15:17:18.571Z,13.38
2023-03-31T15:19:52.349Z,13.49
2023-03-31T15:22:22.883Z,13.58
2023-03-31T15:24:50.478Z,13.48
2023-03-31T15:27:37.068Z,13.39
2023-03-31T15:30:09.380Z,13.66
2023-03-31T15:32:38.040Z,13.57
2023-03-31T15:35:22.085Z,13.44
2023-03-31T15:37:50.767Z,13.54
2023-03-31T15:40:22.026Z,13.37
2023-03-31T15:43:02.072Z,13.31
2023-03-31T15:45:45.728Z,13.19
2023-03-31T15:48:22.439Z,13.10
2023-03-31T15:50:51.776Z,13.14
2023-03-31T15:53:37.099Z,13.24
2023-03-31T15:56:05.488Z,13.20
2023-03-31T15:58:54.819Z,13.30
2023-03-31T16:01:23.535Z,13.00
2023-03-31T16:03:54.152Z,13.13
2023-03-31T16:06:35.028Z,13.27
2023-03-31T16:09:06.284Z,13.32
2023-03-31T16:11:38.673Z,13.44
2023-03-31T16:14:11.932Z,13.59
2023-03-31T16:16:40.389Z,13.89
2023-03-31T16:19:10.358Z,14.15
2023-03-31T16:21:41.760Z,14.27
2023-03-31T16:24:10.275Z,14.08
2023-03-31T16:26:38.450Z,14.17
2023-03-31T16:29:06.382Z,14.11
2023-03-31T16:31:36.018Z,14.03
2023-03-31T16:34:05.393Z,14.08
2023-03-31T16:36:33.011Z,14.00
2023-03-31T16:39:03.379Z,13.89
2023-03-31T16:41:32.529Z,13.93
2023-03-31T16:44:00.948Z,14.07
2023-03-31T16:46:28.824Z,14.27
2023-03-31T16:48:56.799Z,14.19
2023-03-31T16:51:24.338Z,14.02
2023-03-31T16:53:52.123Z,14.07
2023-03-31T16:56:21.143Z,14.02
2023-03-31T16:58:48.844Z,13.91
2023-03-31T17:01:16.532Z,13.98
2023-03-31T17:03:44.764Z,13.63
2023-03-31T17:06:13.328Z,13.77
2023-03-31T17:08:41.415Z,13.41
2023-03-31T17:11:10.851Z,13.38
2023-03-31T17:13:41.278Z,13.25
2023-03-31T17:16:20.368Z,12.96
2023-03-31T17:18:52.336Z,12.94
2023-03-31T17:21:20.152Z,12.84
2023-03-31T17:23:48.425Z,12.71
2023-03-31T17:26:16.639Z,12.78
2023-03-31T17:28:45.997Z,12.61
2023-03-31T17:31:14.069Z,12.64
2023-03-31T17:33:43.764Z,12.48
2023-03-31T17:36:12.244Z,12.61
2023-03-31T17:38:40.708Z,12.58
2023-03-31T17:41:10.392Z,12.70
2023-03-31T17:43:38.387Z,12.50
2023-03-31T17:46:10.867Z,12.41
2023-03-31T17:48:40.640Z,12.46
2023-03-31T17:51:10.032Z,12.42
2023-03-31T17:53:39.271Z,12.36
2023-03-31T17:56:07.222Z,12.49
2023-03-31T17:58:35.254Z,12.34
2023-03-31T18:01:04.484Z,12.18
2023-03-31T18:03:34.535Z,12.08
2023-03-31T18:06:06.890Z,12.27
2023-03-31T18:08:35.308Z,12.32
2023-03-31T18:11:02.997Z,12.25
2023-03-31T18:13:31.403Z,12.26
2023-03-31T18:15:59.022Z,12.38
2023-03-31T18:18:27.106Z,12.32
2023-03-31T18:20:56.971Z,12.41
2023-03-31T18:23:24.933Z,12.27
2023-03-31T18:25:52.529Z,12.27
2023-03-31T18:28:20.471Z,12.15
2023-03-31T18:30:48.130Z,12.00
2023-03-31T18:33:16.175Z,11.99
2023-03-31T18:35:44.388Z,12.11
2023-03-31T18:38:13.859Z,12.04
2023-03-31T18:40:48.250Z,11.97
2023-03-31T18:43:16.137Z,12.11
2023-03-31T18:45:43.773Z,12.26
2023-03-31T18:48:11.555Z,12.13
2023-03-31T18:50:39.050Z,11.76
2023-03-31T18:53:06.854Z,11.59
2023-03-31T18:55:35.946Z,11.46
2023-03-31T18:58:03.929Z,11.38
2023-03-31T19:00:31.318Z,11.32
2023-03-31T19:02:59.541Z,11.35
2023-03-31T19:05:27.666Z,11.32
2023-03-31T19:07:55.772Z,11.31
2023-03-31T19:10:23.531Z,11.25
2023-03-31T19:12:53.130Z,11.16
2023-03-31T19:15:21.579Z,11.20
2023-03-31T19:17:49.609Z,11.36
2023-03-31T19:20:17.582Z,11.14
2023-03-31T19:22:46.824Z,11.07
2023-03-31T19:25:14.952Z,11.07
2023-03-31T19:27:43.481Z,11.08
2023-03-31T19:30:16.480Z,11.07
2023-03-31T19:32:45.020Z,10.96
2023-03-31T19:35:12.666Z,10.93
2023-03-31T19:37:40.449Z,10.92
2023-03-31T19:40:09.459Z,10.98
2023-03-31T19:42:37.680Z,11.10
2023-03-31T19:45:05.969Z,11.21
2023-03-31T19:47:35.381Z,11.02
2023-03-31T19:50:03.014Z,10.97
2023-03-31T19:52:30.872Z,10.79
2023-03-31T19:54:58.401Z,10.98
2023-03-31T19:57:26.508Z,11.00
2023-03-31T19:59:53.939Z,11.01
2023-03-31T20:02:22.005Z,11.18
2023-03-31T20:04:51.186Z,10.99
2023-03-31T20:07:19.606Z,10.86
2023-03-31T20:09:47.143Z,10.62
2023-03-31T20:12:15.065Z,10.57
2023-03-31T20:14:42.727Z,10.30
2023-03-31T20:17:10.742Z,10.18
2023-03-31T20:19:38.449Z,10.21
2023-03-31T20:22:07.807Z,10.19
2023-03-31T20:24:35.195Z,10.17
2023-03-31T20:27:03.038Z,10.14
2023-03-31T20:29:30.598Z,10.12
2023-03-31T20:31:58.615Z,10.05
2023-03-31T20:34:26.508Z,10.09
2023-03-31T20:36:54.340Z,10.00
2023-03-31T20:39:23.278Z,10.00
2023-03-31T20:41:51.292Z,9.86
2023-03-31T20:44:18.773Z,9.90
2023-03-31T20:46:46.629Z,9.83
2023-03-31T20:49:14.211Z,9.75
2023-03-31T20:51:43.117Z,9.73
2023-03-31T20:54:10.598Z,9.64
2023-03-31T20:56:41.037Z,9.64
2023-03-31T20:59:11.310Z,9.85
2023-03-31T21:01:39.295Z,9.84
2023-03-31T21:04:08.177Z,9.84
2023-03-31T21:06:41.295Z,9.86
2023-03-31T21:09:09.081Z,9.94
2023-03-31T21:11:36.831Z,9.91
2023-03-31T21:14:05.832Z,9.90
2023-03-31T21:16:34.133Z,10.12
2023-03-31T21:19:01.738Z,10.08
2023-03-31T21:21:29.951Z,10.14
2023-03-31T21:23:57.372Z,10.20
2023-03-31T21:26:25.269Z,10.25
2023-03-31T21:28:53.202Z,10.25
2023-03-31T21:31:24.455Z,10.00
2023-03-31T21:33:53.445Z,9.98
2023-03-31T21:36:22.549Z,9.92
2023-03-31T21:38:52.631Z,9.83
2023-03-31T21:41:22.074Z,9.83
2023-03-31T21:43:49.750Z,9.85
2023-03-31T21:46:18.875Z,9.67
2023-03-31T21:48:48.743Z,9.49
2023-03-31T21:51:17.475Z,9.56
2023-03-31T21:53:45.001Z,9.55
2023-03-31T21:56:12.705Z,9.50
2023-03-31T21:58:40.315Z,9.47
2023-03-31T22:01:08.933Z,9.49
2023-03-31T22:03:36.573Z,9.51
2023-03-31T22:06:07.098Z,9.39
2023-03-31T22:08:35.196Z,9.27
2023-03-31T22:11:04.070Z,9.28
2023-03-31T22:13:31.762Z,9.05
2023-03-31T22:15:59.709Z,9.17
2023-03-31T22:18:27.621Z,9.17
2023-03-31T22:20:55.663Z,9.20
2023-03-31T22:23:24.935Z,9.17
2023-03-31T22:25:52.818Z,9.19
2023-03-31T22:28:20.294Z,9.27
2023-03-31T22:30:48.587Z,9.38
2023-03-31T22:33:16.116Z,9.36
2023-03-31T22:35:44.039Z,9.29
2023-03-31T22:38:12.740Z,9.38
2023-03-31T22:40:42.045Z,9.50
2023-03-31T22:43:09.455Z,9.45
2023-03-31T22:45:37.624Z,9.31
2023-03-31T22:48:06.229Z,9.33
2023-03-31T22:50:34.539Z,9.27
2023-03-31T22:53:01.917Z,9.38
2023-03-31T22:55:29.910Z,9.43
2023-03-31T22:57:58.949Z,9.41
2023-03-31T23:00:26.703Z,9.53
2023-03-31T23:02:54.124Z,9.50
2023-03-31T23:05:21.944Z,9.60
2023-03-31T23:07:49.452Z,9.68
2023-03-31T23:10:17.433Z,9.62
2023-03-31T23:12:44.758Z,9.76
2023-03-31T23:15:13.968Z,9.96
2023-03-31T23:17:41.466Z,10.10
2023-03-31T23:20:10.243Z,10.13
2023-03-31T23:22:37.653Z,10.31
2023-03-31T23:25:06.247Z,10.58
2023-03-31T23:27:33.863Z,10.74
2023-03-31T23:30:01.643Z,10.78
2023-03-31T23:32:30.711Z,10.81
2023-03-31T23:34:58.426Z,10.86
2023-03-31T23:37:25.856Z,10.98
2023-03-31T23:39:53.841Z,10.83
2023-03-31T23:42:21.190Z,10.78
2023-03-31T23:44:49.005Z,10.69
2023-03-31T23:47:16.404Z,10.63
2023-03-31T23:49:45.558Z,10.64
2023-03-31T23:52:12.868Z,10.42
2023-03-31T23:54:40.725Z,10.23
2023-03-31T23:57:08.158Z,10.14
2023-03-31T23:59:36.130Z,10.10
